createdAt,value
2022-08-09T00:00:13.728Z,98251.47
2022-08-09T00:02:42.796Z,98244.84
2022-08-09T00:06:18.064Z,98247.66
2022-08-09T00:08:10.225Z,98239.53
2022-08-09T00:10:38.890Z,98241.34
2022-08-09T00:13:16.960Z,98240.03
2022-08-09T00:16:00.167Z,98236.56
2022-08-09T00:18:34.922Z,98234.56
2022-08-09T00:21:05.033Z,98230.25
2022-08-09T00:23:55.199Z,98229.44
2022-08-09T00:26:19.538Z,98233.91
2022-08-09T00:28:57.246Z,98229.25
2022-08-09T00:31:59.359Z,98226.31
2022-08-09T00:34:12.051Z,98224.63
2022-08-09T00:36:39.966Z,98216.97
2022-08-09T00:39:10.978Z,98216.50
2022-08-09T00:44:13.490Z,98224.28
2022-08-09T00:44:43.118Z,98225.66
2022-08-09T00:47:15.311Z,98223.00
2022-08-09T00:49:52.434Z,98226.63
2022-08-09T00:52:22.912Z,98225.00
2022-08-09T00:55:00.354Z,98229.09
2022-08-09T00:57:33.651Z,98230.94
2022-08-09T01:00:20.469Z,98230.78
2022-08-09T01:03:40.695Z,98232.31
2022-08-09T01:06:54.648Z,98233.63
2022-08-09T01:09:39.678Z,98226.31
2022-08-09T01:12:12.740Z,98233.63
2022-08-09T01:14:55.107Z,98229.34
2022-08-09T01:17:59.045Z,98230.00
2022-08-09T01:20:55.317Z,98233.66
2022-08-09T01:24:03.190Z,98240.78
2022-08-09T01:26:46.317Z,98230.97
2022-08-09T01:29:28.138Z,98239.97
2022-08-09T01:32:32.467Z,98240.78
2022-08-09T01:34:49.562Z,98235.31
2022-08-09T01:37:42.967Z,98228.66
2022-08-09T01:40:09.076Z,98239.63
2022-08-09T01:42:37.979Z,98241.78
2022-08-09T01:45:07.057Z,98240.28
2022-08-09T01:47:34.538Z,98250.44
2022-08-09T01:50:12.834Z,98246.97
2022-08-09T01:52:43.285Z,98246.47
2022-08-09T01:55:11.426Z,98249.28
2022-08-09T01:57:46.120Z,98251.78
2022-08-09T02:00:35.157Z,98249.59
2022-08-09T02:03:06.519Z,98255.41
2022-08-09T02:05:37.815Z,98252.75
2022-08-09T02:08:35.805Z,98252.78
2022-08-09T02:11:17.027Z,98242.47
2022-08-09T02:13:55.356Z,98249.28
2022-08-09T02:16:59.040Z,98245.09
2022-08-09T02:19:22.826Z,98244.44
2022-08-09T02:21:55.695Z,98246.75
2022-08-09T02:24:26.918Z,98233.97
2022-08-09T02:26:58.791Z,98237.63
2022-08-09T02:29:31.405Z,98227.84
2022-08-09T02:32:03.319Z,98232.31
2022-08-09T02:34:41.437Z,98232.31
2022-08-09T02:37:22.282Z,98225.66
2022-08-09T02:40:01.561Z,98227.97
2022-08-09T02:42:39.624Z,98236.06
2022-08-09T02:45:15.112Z,98233.75
2022-08-09T02:47:57.594Z,98232.75
2022-08-09T02:50:31.164Z,98225.28
2022-08-09T02:53:05.011Z,98229.75
2022-08-09T02:55:46.476Z,98219.63
2022-08-09T02:58:35.336Z,98220.78
2022-08-09T03:01:08.311Z,98218.97
2022-08-09T03:04:18.239Z,98215.28
2022-08-09T03:06:27.963Z,98224.56
2022-08-09T03:08:57.248Z,98212.44
2022-08-09T03:12:04.649Z,98213.41
2022-08-09T03:14:13.423Z,98209.28
2022-08-09T03:16:45.383Z,98206.47
2022-08-09T03:19:58.170Z,98216.88
2022-08-09T03:22:12.334Z,98216.84
2022-08-09T03:25:05.752Z,98214.66
2022-08-09T03:27:45.036Z,98211.84
2022-08-09T03:30:14.213Z,98214.31
2022-08-09T03:32:58.615Z,98210.31
2022-08-09T03:36:13.618Z,98216.75
2022-08-09T03:38:16.142Z,98221.53
2022-08-09T03:40:55.784Z,98216.88
2022-08-09T03:43:22.493Z,98217.81
2022-08-09T03:46:04.290Z,98213.00
2022-08-09T03:48:37.002Z,98224.28
2022-08-09T03:51:57.171Z,98215.63
2022-08-09T03:53:58.975Z,98222.75
2022-08-09T03:56:26.691Z,98217.59
2022-08-09T03:58:54.691Z,98219.59
2022-08-09T04:01:24.909Z,98226.25
2022-08-09T04:04:02.282Z,98219.13
2022-08-09T04:06:31.971Z,98224.56
2022-08-09T04:09:02.708Z,98213.66
2022-08-09T04:12:11.818Z,98214.34
2022-08-09T04:14:59.259Z,98210.47
2022-08-09T04:17:29.442Z,98217.59
2022-08-09T04:19:56.683Z,98212.81
2022-08-09T04:22:23.804Z,98211.38
2022-08-09T04:24:50.698Z,98215.06
2022-08-09T04:27:22.019Z,98205.31
2022-08-09T04:29:50.309Z,98205.88
2022-08-09T04:32:23.673Z,98205.59
2022-08-09T04:34:58.561Z,98203.63
2022-08-09T04:37:45.992Z,98203.00
2022-08-09T04:40:28.770Z,98203.81
2022-08-09T04:43:01.689Z,98204.84
2022-08-09T04:45:30.779Z,98200.88
2022-08-09T04:48:03.067Z,98208.00
2022-08-09T04:50:35.102Z,98213.50
2022-08-09T04:53:13.285Z,98209.41
2022-08-09T04:55:57.872Z,98208.59
2022-08-09T04:58:27.463Z,98206.78
2022-08-09T05:00:55.288Z,98210.41
2022-08-09T05:03:41.265Z,98217.56
2022-08-09T05:06:11.754Z,98221.03
2022-08-09T05:08:43.870Z,98215.06
2022-08-09T05:11:14.987Z,98216.38
2022-08-09T05:13:42.958Z,98222.34
2022-08-09T05:16:10.520Z,98220.66
2022-08-09T05:18:57.946Z,98212.66
2022-08-09T05:21:29.858Z,98214.63
2022-08-09T05:24:01.420Z,98203.91
2022-08-09T05:26:36.413Z,98206.34
2022-08-09T05:29:17.008Z,98211.13
2022-08-09T05:31:46.790Z,98212.69
2022-08-09T05:34:18.145Z,98204.94
2022-08-09T05:36:46.863Z,98200.53
2022-08-09T05:39:29.499Z,98203.38
2022-08-09T05:42:04.449Z,98202.72
2022-08-09T05:44:32.882Z,98201.47
2022-08-09T05:47:01.512Z,98198.81
2022-08-09T05:50:31.294Z,98204.03
2022-08-09T05:52:21.137Z,98194.09
2022-08-09T05:54:51.695Z,98190.63
2022-08-09T05:57:19.290Z,98177.94
2022-08-09T05:59:46.692Z,98190.84
2022-08-09T06:02:17.138Z,98194.13
2022-08-09T06:04:46.236Z,98192.78
2022-08-09T06:07:21.160Z,98207.13
2022-08-09T06:10:01.782Z,98195.09
2022-08-09T06:12:30.671Z,98198.09
2022-08-09T06:15:00.893Z,98197.75
2022-08-09T06:17:39.848Z,98201.91
2022-08-09T06:20:07.975Z,98204.19
2022-08-09T06:22:35.420Z,98200.06
2022-08-09T06:25:02.386Z,98204.03
2022-08-09T06:27:41.381Z,98204.84
2022-08-09T06:30:14.107Z,98199.84
2022-08-09T06:32:59.999Z,98204.59
2022-08-09T06:35:35.658Z,98203.09
2022-08-09T06:38:16.510Z,98209.69
2022-08-09T06:40:43.542Z,98209.03
2022-08-09T06:43:11.422Z,98207.28
2022-08-09T06:46:07.130Z,98205.34
2022-08-09T06:48:30.560Z,98210.78
2022-08-09T06:50:59.143Z,98203.06
2022-08-09T06:53:25.914Z,98196.72
2022-08-09T06:55:53.245Z,98195.72
2022-08-09T07:00:52.658Z,98197.66
2022-08-09T07:01:08.009Z,98194.97
2022-08-09T07:03:39.934Z,98207.06
2022-08-09T07:06:19.595Z,98208.09
2022-08-09T07:08:49.573Z,98203.13
2022-08-09T07:11:17.697Z,98203.59
2022-08-09T07:14:05.703Z,98209.84
2022-08-09T07:16:41.058Z,98203.41
2022-08-09T07:19:15.460Z,98206.06
2022-08-09T07:21:55.428Z,98206.88
2022-08-09T07:24:32.879Z,98203.94
2022-08-09T07:27:11.072Z,98200.56
2022-08-09T07:29:57.121Z,98209.47
2022-08-09T07:32:33.715Z,98200.03
2022-08-09T07:35:10.794Z,98196.59
2022-08-09T07:37:45.841Z,98208.59
2022-08-09T07:40:17.422Z,98208.19
2022-08-09T07:43:00.068Z,98208.59
2022-08-09T07:45:38.053Z,98210.66
2022-08-09T07:48:29.496Z,98203.88
2022-08-09T07:51:09.395Z,98210.59
2022-08-09T07:54:04.402Z,98212.06
2022-08-09T07:56:33.834Z,98214.75
2022-08-09T07:59:00.768Z,98221.19
2022-08-09T08:01:33.921Z,98214.19
2022-08-09T08:04:02.379Z,98215.41
2022-08-09T08:06:31.858Z,98219.25
2022-08-09T08:09:04.931Z,98211.25
2022-08-09T08:12:11.088Z,98220.91
2022-08-09T08:14:19.042Z,98217.88
2022-08-09T08:17:00.396Z,98220.06
2022-08-09T08:19:31.274Z,98211.75
2022-08-09T08:21:58.426Z,98217.94
2022-08-09T08:24:34.144Z,98213.78
2022-08-09T08:27:17.066Z,98212.34
2022-08-09T08:29:48.998Z,98209.91
2022-08-09T08:32:18.995Z,98212.50
2022-08-09T08:34:55.555Z,98218.50
2022-08-09T08:37:41.135Z,98206.38
2022-08-09T08:40:09.813Z,98206.22
2022-08-09T08:42:38.242Z,98201.69
2022-08-09T08:45:13.779Z,98206.78
2022-08-09T08:47:42.789Z,98204.88
2022-08-09T08:50:15.500Z,98206.75
2022-08-09T08:52:57.414Z,98210.88
2022-08-09T08:55:26.154Z,98220.78
2022-08-09T08:57:56.743Z,98206.25
2022-08-09T09:00:27.740Z,98209.97
2022-08-09T09:03:08.757Z,98210.47
2022-08-09T09:05:58.367Z,98215.34
2022-08-09T09:08:32.065Z,98211.38
2022-08-09T09:11:05.930Z,98214.00
2022-08-09T09:13:55.463Z,98214.81
2022-08-09T09:16:35.054Z,98209.59
2022-08-09T09:22:13.879Z,98214.44
2022-08-09T09:24:56.536Z,98204.44
2022-08-09T09:28:05.211Z,98211.22
2022-08-09T09:33:13.909Z,98204.97
2022-08-09T09:36:01.820Z,98197.22
2022-08-09T09:38:49.636Z,98197.06
2022-08-09T09:41:32.533Z,98205.69
2022-08-09T09:44:12.856Z,98197.19
2022-08-09T09:46:45.833Z,98192.25
2022-08-09T09:49:49.931Z,98191.81
2022-08-09T09:52:33.608Z,98206.06
2022-08-09T09:55:16.823Z,98205.16
2022-08-09T09:58:18.682Z,98192.06
2022-08-09T10:00:54.094Z,98194.91
2022-08-09T10:03:42.788Z,98196.44
2022-08-09T10:06:12.418Z,98185.28
2022-08-09T10:08:54.397Z,98199.00
2022-08-09T10:11:59.570Z,98188.50
2022-08-09T10:14:32.924Z,98181.69
2022-08-09T10:17:40.124Z,98181.72
2022-08-09T10:19:59.969Z,98180.53
2022-08-09T10:22:35.603Z,98181.09
2022-08-09T10:25:11.979Z,98178.34
2022-08-09T10:27:56.060Z,98175.09
2022-08-09T10:33:44.845Z,98174.22
2022-08-09T10:36:11.525Z,98183.34
2022-08-09T10:38:57.228Z,98167.03
2022-08-09T10:41:27.962Z,98164.09
2022-08-09T10:44:01.254Z,98163.88
2022-08-09T10:47:00.549Z,98167.66
2022-08-09T10:49:49.723Z,98170.03
2022-08-09T10:52:42.877Z,98175.22
2022-08-09T10:55:28.895Z,98174.06
2022-08-09T10:58:34.509Z,98160.56
2022-08-09T11:03:03.068Z,98161.47
2022-08-09T11:04:29.903Z,98160.53
2022-08-09T11:06:58.010Z,98155.81
2022-08-09T11:09:41.227Z,98155.59
2022-08-09T11:12:18.344Z,98154.91
2022-08-09T11:14:57.573Z,98153.91
2022-08-09T11:17:31.331Z,98154.00
2022-08-09T11:20:07.853Z,98148.22
2022-08-09T11:22:44.874Z,98152.59
2022-08-09T11:25:18.676Z,98145.66
2022-08-09T11:28:07.869Z,98150.53
2022-08-09T11:30:47.856Z,98151.38
2022-08-09T11:33:18.004Z,98141.78
2022-08-09T11:35:49.028Z,98137.75
2022-08-09T11:38:18.068Z,98127.50
2022-08-09T11:40:45.758Z,98116.75
2022-08-09T11:43:32.277Z,98121.22
2022-08-09T11:46:01.577Z,98118.00
2022-08-09T11:48:30.394Z,98117.81
2022-08-09T11:52:49.027Z,98118.81
2022-08-09T11:53:59.091Z,98113.22
2022-08-09T11:56:41.945Z,98113.44
2022-08-09T11:59:30.469Z,98117.06
2022-08-09T12:02:17.978Z,98119.72
2022-08-09T12:04:54.600Z,98122.16
2022-08-09T12:07:29.232Z,98100.84
2022-08-09T12:10:14.516Z,98117.66
2022-08-09T12:12:57.536Z,98104.69
2022-08-09T12:15:49.939Z,98099.06
2022-08-09T12:18:29.708Z,98105.44
2022-08-09T12:21:00.669Z,98108.22
2022-08-09T12:23:56.415Z,98094.28
2022-08-09T12:26:25.378Z,98089.44
2022-08-09T12:29:10.357Z,98081.84
2022-08-09T12:32:02.524Z,98081.31
2022-08-09T12:34:35.007Z,98087.25
2022-08-09T12:37:21.797Z,98092.88
2022-08-09T12:40:08.811Z,98085.78
2022-08-09T12:42:36.137Z,98084.25
2022-08-09T12:45:32.291Z,98075.44
2022-08-09T12:47:52.630Z,98077.03
2022-08-09T12:50:23.444Z,98076.25
2022-08-09T12:53:09.046Z,98066.22
2022-08-09T12:56:11.746Z,98063.72
2022-08-09T12:58:27.978Z,98061.34
2022-08-09T13:00:56.246Z,98056.63
2022-08-09T13:03:58.511Z,98058.97
2022-08-09T13:06:25.987Z,98065.19
2022-08-09T13:09:07.987Z,98058.63
2022-08-09T13:11:39.646Z,98063.34
2022-08-09T13:14:41.898Z,98057.38
2022-08-09T13:16:59.317Z,98057.69
2022-08-09T13:20:06.925Z,98058.56
2022-08-09T13:22:36.206Z,98050.72
2022-08-09T13:25:07.541Z,98049.31
2022-08-09T13:27:39.900Z,98048.91
2022-08-09T13:30:49.946Z,98053.09
2022-08-09T13:33:05.353Z,98055.00
2022-08-09T13:35:34.605Z,98055.16
2022-08-09T13:38:55.821Z,98053.47
2022-08-09T13:41:54.257Z,98045.22
2022-08-09T13:43:52.181Z,98042.19
2022-08-09T13:47:13.017Z,98039.63
2022-08-09T13:49:05.549Z,98040.13
2022-08-09T13:52:00.683Z,98038.25
2022-08-09T13:54:30.340Z,98028.72
2022-08-09T13:56:57.880Z,98038.69
2022-08-09T13:59:25.735Z,98023.78
2022-08-09T14:02:04.822Z,98028.41
2022-08-09T14:04:31.621Z,98019.59
2022-08-09T14:07:00.668Z,98019.56
2022-08-09T14:09:34.652Z,98008.47
2022-08-09T14:12:06.875Z,98017.72
2022-08-09T14:14:44.082Z,98031.09
2022-08-09T14:17:12.608Z,98032.66
2022-08-09T14:19:39.433Z,98017.13
2022-08-09T14:22:07.163Z,98021.53
2022-08-09T14:24:35.836Z,98018.38
2022-08-09T14:27:19.913Z,98017.75
2022-08-09T14:30:34.700Z,98029.03
2022-08-09T14:32:34.490Z,98024.44
2022-08-09T14:35:06.019Z,98017.13
2022-08-09T14:38:01.421Z,98020.38
2022-08-09T14:40:19.527Z,98025.88
2022-08-09T14:43:04.745Z,98028.13
2022-08-09T14:46:54.808Z,98027.53
2022-08-09T14:48:18.165Z,98029.53
2022-08-09T14:50:44.990Z,98030.88
2022-08-09T14:53:13.804Z,98034.03
2022-08-09T14:55:50.286Z,98029.31
2022-08-09T14:58:17.568Z,98024.13
2022-08-09T15:00:48.322Z,98027.19
2022-08-09T15:03:20.001Z,98039.97
2022-08-09T15:05:52.567Z,98023.53
2022-08-09T15:08:26.492Z,98035.25
2022-08-09T15:11:00.559Z,98029.53
2022-08-09T15:13:56.152Z,98030.03
2022-08-09T15:16:18.875Z,98034.75
2022-08-09T15:18:49.457Z,98027.94
2022-08-09T15:21:56.066Z,98026.81
2022-08-09T15:24:12.362Z,98026.31
2022-08-09T15:26:46.283Z,98039.09
2022-08-09T15:30:55.792Z,98034.94
2022-08-09T15:32:00.667Z,98038.53
2022-08-09T15:34:33.408Z,98040.53
2022-08-09T15:37:04.097Z,98041.59
2022-08-09T15:39:49.919Z,98038.81
2022-08-09T15:42:18.968Z,98041.84
2022-08-09T15:44:46.475Z,98038.31
2022-08-09T15:47:14.499Z,98042.88
2022-08-09T15:50:03.641Z,98044.53
2022-08-09T15:52:33.021Z,98053.97
2022-08-09T15:55:00.539Z,98042.38
2022-08-09T15:57:35.162Z,98041.25
2022-08-09T16:00:24.537Z,98052.31
2022-08-09T16:02:54.761Z,98049.13
2022-08-09T16:05:26.515Z,98047.44
2022-08-09T16:08:15.258Z,98048.13
2022-08-09T16:10:57.191Z,98051.78
2022-08-09T16:14:02.654Z,98044.63
2022-08-09T16:16:18.497Z,98049.38
2022-08-09T16:18:46.773Z,98042.59
2022-08-09T16:21:17.013Z,98046.88
2022-08-09T16:23:50.803Z,98043.25
2022-08-09T16:26:33.902Z,98035.16
2022-08-09T16:29:11.179Z,98038.69
2022-08-09T16:32:17.663Z,98039.38
2022-08-09T16:34:54.752Z,98044.53
2022-08-09T16:37:18.159Z,98041.09
2022-08-09T16:40:00.462Z,98041.63
2022-08-09T16:42:31.486Z,98051.91
2022-08-09T16:44:58.160Z,98046.84
2022-08-09T16:48:43.398Z,98037.38
2022-08-09T16:50:28.686Z,98044.69
2022-08-09T16:52:59.452Z,98050.16
2022-08-09T16:55:26.448Z,98043.91
2022-08-09T16:58:10.122Z,98049.09
2022-08-09T17:00:38.771Z,98046.50
2022-08-09T17:03:22.278Z,98055.09
2022-08-09T17:06:03.509Z,98045.00
2022-08-09T17:08:45.476Z,98053.56
2022-08-09T17:11:40.292Z,98051.31
2022-08-09T17:14:25.467Z,98056.47
2022-08-09T17:16:54.048Z,98061.31
2022-08-09T17:19:20.990Z,98064.75
2022-08-09T17:21:47.799Z,98067.38
2022-08-09T17:24:28.027Z,98075.94
2022-08-09T17:26:58.318Z,98066.75
2022-08-09T17:29:26.670Z,98079.28
2022-08-09T17:32:01.837Z,98068.94
2022-08-09T17:35:01.529Z,98077.34
2022-08-09T17:37:19.430Z,98088.97
2022-08-09T17:39:52.511Z,98096.72
2022-08-09T17:42:41.454Z,98104.34
2022-08-09T17:45:15.904Z,98103.47
2022-08-09T17:47:55.477Z,98115.66
2022-08-09T17:50:35.936Z,98110.34
2022-08-09T17:53:19.649Z,98125.88
2022-08-09T17:55:54.090Z,98132.53
2022-08-09T17:58:26.697Z,98129.41
2022-08-09T18:00:55.901Z,98142.09
2022-08-09T18:03:24.582Z,98140.69
2022-08-09T18:05:53.005Z,98153.56
2022-08-09T18:08:21.795Z,98155.88
2022-08-09T18:11:02.223Z,98159.00
2022-08-09T18:13:43.500Z,98171.06
2022-08-09T18:16:29.327Z,98161.53
2022-08-09T18:18:57.889Z,98162.88
2022-08-09T18:21:27.448Z,98173.47
2022-08-09T18:24:12.416Z,98183.59
2022-08-09T18:26:46.571Z,98181.34
2022-08-09T18:30:38.428Z,98185.88
2022-08-09T18:32:05.491Z,98186.78
2022-08-09T18:34:35.294Z,98194.47
2022-08-09T18:37:10.570Z,98199.09
2022-08-09T18:39:53.728Z,98205.06
2022-08-09T18:42:21.157Z,98218.28
2022-08-09T18:44:56.319Z,98223.09
2022-08-09T18:47:27.587Z,98219.00
2022-08-09T18:50:02.966Z,98233.69
2022-08-09T18:52:35.032Z,98230.19
2022-08-09T18:55:02.845Z,98239.88
2022-08-09T18:57:38.398Z,98244.41
2022-08-09T19:00:19.155Z,98248.97
2022-08-09T19:02:48.477Z,98246.09
2022-08-09T19:05:28.728Z,98249.59
2022-08-09T19:08:10.211Z,98247.97
2022-08-09T19:10:39.936Z,98255.59
2022-08-09T19:13:22.998Z,98252.09
2022-08-09T19:16:01.306Z,98266.13
2022-08-09T19:18:33.998Z,98263.44
2022-08-09T19:21:09.182Z,98271.69
2022-08-09T19:24:33.433Z,98271.06
2022-08-09T19:26:31.713Z,98281.72
2022-08-09T19:29:01.515Z,98280.91
2022-08-09T19:31:45.836Z,98291.41
2022-08-09T19:34:22.258Z,98285.81
2022-08-09T19:36:52.175Z,98284.56
2022-08-09T19:39:21.040Z,98288.28
2022-08-09T19:42:06.675Z,98287.41
2022-08-09T19:44:33.988Z,98290.06
2022-08-09T19:47:01.708Z,98289.84
2022-08-09T19:50:09.151Z,98295.56
2022-08-09T19:52:15.939Z,98299.06
2022-08-09T19:54:45.198Z,98299.25
2022-08-09T19:57:12.319Z,98292.25
2022-08-09T20:00:06.616Z,98302.53
2022-08-09T20:04:11.400Z,98303.69
2022-08-09T20:05:16.751Z,98297.06
2022-08-09T20:07:59.619Z,98298.03
2022-08-09T20:10:34.445Z,98297.31
2022-08-09T20:13:05.574Z,98307.59
2022-08-09T20:16:37.441Z,98305.25
2022-08-09T20:18:22.178Z,98302.47
2022-08-09T20:20:51.284Z,98313.69
2022-08-09T20:23:22.909Z,98303.31
2022-08-09T20:25:51.994Z,98302.25
2022-08-09T20:28:27.657Z,98302.63
2022-08-09T20:31:04.706Z,98294.09
2022-08-09T20:33:38.952Z,98294.22
2022-08-09T20:36:07.915Z,98301.53
2022-08-09T20:38:50.400Z,98298.16
2022-08-09T20:41:32.552Z,98305.03
2022-08-09T20:44:03.612Z,98302.91
2022-08-09T20:46:41.655Z,98297.50
2022-08-09T20:49:10.333Z,98301.19
2022-08-09T20:51:40.896Z,98298.25
2022-08-09T20:54:16.412Z,98293.28
2022-08-09T20:56:49.816Z,98292.00
2022-08-09T20:59:49.973Z,98300.00
2022-08-09T21:02:10.353Z,98303.31
2022-08-09T21:05:52.139Z,98303.88
2022-08-09T21:07:30.094Z,98310.44
2022-08-09T21:10:06.287Z,98304.16
2022-08-09T21:12:37.594Z,98309.16
2022-08-09T21:15:05.608Z,98302.91
2022-08-09T21:18:11.379Z,98307.66
2022-08-09T21:20:26.807Z,98308.78
2022-08-09T21:22:57.002Z,98300.50
2022-08-09T21:25:44.227Z,98304.53
2022-08-09T21:28:33.779Z,98306.91
2022-08-09T21:31:16.500Z,98297.63
2022-08-09T21:33:51.295Z,98303.88
2022-08-09T21:36:28.875Z,98301.88
2022-08-09T21:38:59.830Z,98300.78
2022-08-09T21:42:05.076Z,98299.06
2022-08-09T21:44:33.853Z,98301.44
2022-08-09T21:47:09.299Z,98306.50
2022-08-09T21:49:42.912Z,98302.69
2022-08-09T21:52:17.754Z,98310.94
2022-08-09T21:54:59.517Z,98308.34
2022-08-09T21:57:37.097Z,98306.50
2022-08-09T22:00:10.949Z,98305.91
2022-08-09T22:02:40.183Z,98302.13
2022-08-09T22:05:22.882Z,98302.50
2022-08-09T22:07:53.406Z,98294.50
2022-08-09T22:10:22.798Z,98299.72
2022-08-09T22:12:50.474Z,98304.56
2022-08-09T22:15:17.296Z,98302.00
2022-08-09T22:17:47.527Z,98297.38
2022-08-09T22:20:16.822Z,98301.19
2022-08-09T22:22:48.874Z,98308.88
2022-08-09T22:26:05.422Z,98308.09
2022-08-09T22:28:06.513Z,98306.97
2022-08-09T22:30:34.037Z,98310.72
2022-08-09T22:33:01.567Z,98306.19
2022-08-09T22:36:03.348Z,98304.34
2022-08-09T22:38:16.459Z,98307.69
2022-08-09T22:40:49.236Z,98300.81
2022-08-09T22:44:00.788Z,98311.88
2022-08-09T22:48:14.400Z,98306.03
2022-08-09T22:49:01.932Z,98306.44
2022-08-09T22:51:38.120Z,98296.44
2022-08-09T22:54:08.059Z,98302.84
2022-08-09T22:56:35.077Z,98301.47
2022-08-09T22:59:05.766Z,98297.78
2022-08-09T23:01:50.928Z,98304.63
2022-08-09T23:04:18.166Z,98296.44
2022-08-09T23:07:03.779Z,98305.38
2022-08-09T23:09:39.181Z,98300.13
2022-08-09T23:12:06.341Z,98298.53
2022-08-09T23:14:37.600Z,98301.03
2022-08-09T23:17:10.071Z,98303.03
2022-08-09T23:20:07.504Z,98306.53
2022-08-09T23:22:23.717Z,98308.09
2022-08-09T23:24:50.403Z,98302.00
2022-08-09T23:27:17.244Z,98301.03
2022-08-09T23:29:43.987Z,98300.25
2022-08-09T23:32:12.339Z,98301.94
2022-08-09T23:34:39.928Z,98298.59
2022-08-09T23:37:07.566Z,98298.50
2022-08-09T23:39:34.405Z,98295.84
2022-08-09T23:42:01.083Z,98307.53
2022-08-09T23:44:27.969Z,98296.53
2022-08-09T23:46:57.684Z,98288.91
2022-08-09T23:49:25.711Z,98289.28
2022-08-09T23:51:53.846Z,98291.41
2022-08-09T23:54:21.520Z,98295.63
2022-08-09T23:56:58.142Z,98282.00
2022-08-09T23:59:25.531Z,98284.31
